sensor_id;sensor_type;location;lat;lon;timestamp;P1;P2;P0
73517;PMS5003;61766;60.318;25.044;2023-10-31T00:01:55;22;22;
73517;PMS5003;61766;60.318;25.044;2023-10-31T00:04:21;20;20;
73517;PMS5003;61766;60.318;25.044;2023-10-31T00:06:46;20;18;
73517;PMS5003;61766;60.318;25.044;2023-10-31T00:09:12;19;16;
73517;PMS5003;61766;60.318;25.044;2023-10-31T00:11:37;21;18;
73517;PMS5003;61766;60.318;25.044;2023-10-31T00:14:05;16;16;
73517;PMS5003;61766;60.318;25.044;2023-10-31T00:16:29;13;13;
73517;PMS5003;61766;60.318;25.044;2023-10-31T00:18:54;15;14;
73517;PMS5003;61766;60.318;25.044;2023-10-31T00:21:20;16;15;
73517;PMS5003;61766;60.318;25.044;2023-10-31T00:23:45;12;12;
73517;PMS5003;61766;60.318;25.044;2023-10-31T00:26:11;14;14;
73517;PMS5003;61766;60.318;25.044;2023-10-31T00:28:37;16;16;
73517;PMS5003;61766;60.318;25.044;2023-10-31T00:31:02;16;14;
73517;PMS5003;61766;60.318;25.044;2023-10-31T00:33:27;14;14;
73517;PMS5003;61766;60.318;25.044;2023-10-31T00:35:52;16;16;
73517;PMS5003;61766;60.318;25.044;2023-10-31T00:38:18;13;13;
73517;PMS5003;61766;60.318;25.044;2023-10-31T00:40:43;17;15;
73517;PMS5003;61766;60.318;25.044;2023-10-31T00:43:08;16;16;
73517;PMS5003;61766;60.318;25.044;2023-10-31T00:45:34;16;14;
73517;PMS5003;61766;60.318;25.044;2023-10-31T00:47:59;15;15;
73517;PMS5003;61766;60.318;25.044;2023-10-31T00:50:25;13;13;
73517;PMS5003;61766;60.318;25.044;2023-10-31T00:52:51;16;13;
73517;PMS5003;61766;60.318;25.044;2023-10-31T00:55:16;13;12;
73517;PMS5003;61766;60.318;25.044;2023-10-31T00:57:42;19;18;
73517;PMS5003;61766;60.318;25.044;2023-10-31T01:00:08;15;15;
73517;PMS5003;61766;60.318;25.044;2023-10-31T01:02:33;16;14;
73517;PMS5003;61766;60.318;25.044;2023-10-31T01:04:59;12;12;
73517;PMS5003;61766;60.318;25.044;2023-10-31T01:07:24;13;13;
73517;PMS5003;61766;60.318;25.044;2023-10-31T01:09:49;14;14;
73517;PMS5003;61766;60.318;25.044;2023-10-31T01:12:15;12;12;
73517;PMS5003;61766;60.318;25.044;2023-10-31T01:14:40;15;14;
73517;PMS5003;61766;60.318;25.044;2023-10-31T01:17:06;16;15;
73517;PMS5003;61766;60.318;25.044;2023-10-31T01:19:31;12;12;
73517;PMS5003;61766;60.318;25.044;2023-10-31T01:21:56;14;14;
73517;PMS5003;61766;60.318;25.044;2023-10-31T01:24:21;13;13;
73517;PMS5003;61766;60.318;25.044;2023-10-31T01:26:47;13;12;
73517;PMS5003;61766;60.318;25.044;2023-10-31T01:29:12;12;12;
73517;PMS5003;61766;60.318;25.044;2023-10-31T01:31:37;14;13;
73517;PMS5003;61766;60.318;25.044;2023-10-31T01:34:03;14;13;
73517;PMS5003;61766;60.318;25.044;2023-10-31T01:36:28;15;14;
73517;PMS5003;61766;60.318;25.044;2023-10-31T01:38:54;16;14;
73517;PMS5003;61766;60.318;25.044;2023-10-31T01:41:19;12;12;
73517;PMS5003;61766;60.318;25.044;2023-10-31T01:43:45;12;11;
73517;PMS5003;61766;60.318;25.044;2023-10-31T01:46:10;15;14;
73517;PMS5003;61766;60.318;25.044;2023-10-31T01:48:35;12;12;
73517;PMS5003;61766;60.318;25.044;2023-10-31T01:51:02;12;12;
73517;PMS5003;61766;60.318;25.044;2023-10-31T01:53:26;14;14;
73517;PMS5003;61766;60.318;25.044;2023-10-31T01:55:51;13;12;
73517;PMS5003;61766;60.318;25.044;2023-10-31T01:58:16;13;13;
73517;PMS5003;61766;60.318;25.044;2023-10-31T02:00:42;13;13;
73517;PMS5003;61766;60.318;25.044;2023-10-31T02:03:07;13;13;
73517;PMS5003;61766;60.318;25.044;2023-10-31T02:05:33;17;17;
73517;PMS5003;61766;60.318;25.044;2023-10-31T02:07:58;15;15;
73517;PMS5003;61766;60.318;25.044;2023-10-31T02:10:24;16;13;
73517;PMS5003;61766;60.318;25.044;2023-10-31T02:12:49;13;13;
73517;PMS5003;61766;60.318;25.044;2023-10-31T02:15:15;14;13;
73517;PMS5003;61766;60.318;25.044;2023-10-31T02:17:40;13;13;
73517;PMS5003;61766;60.318;25.044;2023-10-31T02:20:07;13;13;
73517;PMS5003;61766;60.318;25.044;2023-10-31T02:22:31;14;12;
73517;PMS5003;61766;60.318;25.044;2023-10-31T02:24:57;12;12;
73517;PMS5003;61766;60.318;25.044;2023-10-31T02:27:23;12;12;
73517;PMS5003;61766;60.318;25.044;2023-10-31T02:29:48;11;11;
73517;PMS5003;61766;60.318;25.044;2023-10-31T02:32:14;10;10;
73517;PMS5003;61766;60.318;25.044;2023-10-31T02:34:39;12;12;
73517;PMS5003;61766;60.318;25.044;2023-10-31T02:37:05;16;16;
73517;PMS5003;61766;60.318;25.044;2023-10-31T02:39:30;13;12;
73517;PMS5003;61766;60.318;25.044;2023-10-31T02:41:55;15;15;
73517;PMS5003;61766;60.318;25.044;2023-10-31T02:44:20;11;11;
73517;PMS5003;61766;60.318;25.044;2023-10-31T02:46:46;14;14;
73517;PMS5003;61766;60.318;25.044;2023-10-31T02:49:11;11;11;
73517;PMS5003;61766;60.318;25.044;2023-10-31T02:51:37;14;13;
73517;PMS5003;61766;60.318;25.044;2023-10-31T02:54:02;13;13;
73517;PMS5003;61766;60.318;25.044;2023-10-31T02:56:27;15;14;
73517;PMS5003;61766;60.318;25.044;2023-10-31T02:58:52;11;11;
73517;PMS5003;61766;60.318;25.044;2023-10-31T03:01:18;12;12;
73517;PMS5003;61766;60.318;25.044;2023-10-31T03:03:43;12;12;
73517;PMS5003;61766;60.318;25.044;2023-10-31T03:06:09;13;11;
73517;PMS5003;61766;60.318;25.044;2023-10-31T03:08:35;11;11;
73517;PMS5003;61766;60.318;25.044;2023-10-31T03:11:00;9;9;
73517;PMS5003;61766;60.318;25.044;2023-10-31T03:13:25;10;10;
73517;PMS5003;61766;60.318;25.044;2023-10-31T03:15:51;12;11;
73517;PMS5003;61766;60.318;25.044;2023-10-31T03:18:16;12;12;
73517;PMS5003;61766;60.318;25.044;2023-10-31T03:20:43;12;12;
73517;PMS5003;61766;60.318;25.044;2023-10-31T03:23:07;14;14;
73517;PMS5003;61766;60.318;25.044;2023-10-31T03:25:33;20;20;
73517;PMS5003;61766;60.318;25.044;2023-10-31T03:27:58;19;19;
73517;PMS5003;61766;60.318;25.044;2023-10-31T03:30:24;23;23;
73517;PMS5003;61766;60.318;25.044;2023-10-31T03:32:49;24;23;
73517;PMS5003;61766;60.318;25.044;2023-10-31T03:35:14;23;23;
73517;PMS5003;61766;60.318;25.044;2023-10-31T03:37:40;20;20;
73517;PMS5003;61766;60.318;25.044;2023-10-31T03:40:06;24;24;
73517;PMS5003;61766;60.318;25.044;2023-10-31T03:42:31;25;25;
73517;PMS5003;61766;60.318;25.044;2023-10-31T03:44:56;28;28;
73517;PMS5003;61766;60.318;25.044;2023-10-31T03:47:22;34;34;
73517;PMS5003;61766;60.318;25.044;2023-10-31T03:49:48;32;32;
73517;PMS5003;61766;60.318;25.044;2023-10-31T03:52:13;35;35;
73517;PMS5003;61766;60.318;25.044;2023-10-31T03:54:39;34;33;
73517;PMS5003;61766;60.318;25.044;2023-10-31T03:57:04;39;36;
73517;PMS5003;61766;60.318;25.044;2023-10-31T03:59:29;40;39;
73517;PMS5003;61766;60.318;25.044;2023-10-31T04:01:55;45;43;
73517;PMS5003;61766;60.318;25.044;2023-10-31T04:04:20;50;50;
73517;PMS5003;61766;60.318;25.044;2023-10-31T04:06:46;46;45;
73517;PMS5003;61766;60.318;25.044;2023-10-31T04:09:12;45;41;
73517;PMS5003;61766;60.318;25.044;2023-10-31T04:11:37;32;31;
73517;PMS5003;61766;60.318;25.044;2023-10-31T04:14:02;33;32;
73517;PMS5003;61766;60.318;25.044;2023-10-31T04:16:27;33;32;
73517;PMS5003;61766;60.318;25.044;2023-10-31T04:18:53;32;32;
73517;PMS5003;61766;60.318;25.044;2023-10-31T04:21:18;33;31;
73517;PMS5003;61766;60.318;25.044;2023-10-31T04:23:44;31;29;
73517;PMS5003;61766;60.318;25.044;2023-10-31T04:26:10;29;29;
73517;PMS5003;61766;60.318;25.044;2023-10-31T04:28:35;29;28;
73517;PMS5003;61766;60.318;25.044;2023-10-31T04:31:00;29;28;
73517;PMS5003;61766;60.318;25.044;2023-10-31T04:33:26;25;24;
73517;PMS5003;61766;60.318;25.044;2023-10-31T04:35:51;25;24;
73517;PMS5003;61766;60.318;25.044;2023-10-31T04:38:16;19;19;
73517;PMS5003;61766;60.318;25.044;2023-10-31T04:40:42;18;18;
73517;PMS5003;61766;60.318;25.044;2023-10-31T04:43:08;19;19;
73517;PMS5003;61766;60.318;25.044;2023-10-31T04:45:34;20;19;
73517;PMS5003;61766;60.318;25.044;2023-10-31T04:47:59;16;15;
73517;PMS5003;61766;60.318;25.044;2023-10-31T04:50:25;16;15;
73517;PMS5003;61766;60.318;25.044;2023-10-31T04:52:50;14;14;
73517;PMS5003;61766;60.318;25.044;2023-10-31T04:55:16;15;15;
73517;PMS5003;61766;60.318;25.044;2023-10-31T04:57:41;14;14;
73517;PMS5003;61766;60.318;25.044;2023-10-31T05:00:08;12;11;
73517;PMS5003;61766;60.318;25.044;2023-10-31T05:02:33;12;11;
73517;PMS5003;61766;60.318;25.044;2023-10-31T05:04:58;11;11;
73517;PMS5003;61766;60.318;25.044;2023-10-31T05:07:23;11;10;
73517;PMS5003;61766;60.318;25.044;2023-10-31T05:09:49;12;12;
73517;PMS5003;61766;60.318;25.044;2023-10-31T05:12:14;12;12;
73517;PMS5003;61766;60.318;25.044;2023-10-31T05:14:40;10;9;
73517;PMS5003;61766;60.318;25.044;2023-10-31T05:17:05;9;9;
73517;PMS5003;61766;60.318;25.044;2023-10-31T05:19:30;13;13;
73517;PMS5003;61766;60.318;25.044;2023-10-31T05:21:55;7;7;
73517;PMS5003;61766;60.318;25.044;2023-10-31T05:24:20;9;8;
73517;PMS5003;61766;60.318;25.044;2023-10-31T05:26:46;8;8;
73517;PMS5003;61766;60.318;25.044;2023-10-31T05:29:11;9;9;
73517;PMS5003;61766;60.318;25.044;2023-10-31T05:31:36;12;12;
73517;PMS5003;61766;60.318;25.044;2023-10-31T05:34:01;11;10;
73517;PMS5003;61766;60.318;25.044;2023-10-31T05:36:26;11;10;
73517;PMS5003;61766;60.318;25.044;2023-10-31T05:38:52;13;13;
73517;PMS5003;61766;60.318;25.044;2023-10-31T05:41:18;16;15;
73517;PMS5003;61766;60.318;25.044;2023-10-31T05:43:43;16;14;
73517;PMS5003;61766;60.318;25.044;2023-10-31T05:46:08;19;17;
73517;PMS5003;61766;60.318;25.044;2023-10-31T05:48:34;19;19;
73517;PMS5003;61766;60.318;25.044;2023-10-31T05:51:00;19;18;
73517;PMS5003;61766;60.318;25.044;2023-10-31T05:53:25;16;15;
73517;PMS5003;61766;60.318;25.044;2023-10-31T05:55:50;19;18;
73517;PMS5003;61766;60.318;25.044;2023-10-31T05:58:15;13;12;
73517;PMS5003;61766;60.318;25.044;2023-10-31T06:00:41;14;14;
73517;PMS5003;61766;60.318;25.044;2023-10-31T06:03:06;15;15;
73517;PMS5003;61766;60.318;25.044;2023-10-31T06:05:32;10;10;
73517;PMS5003;61766;60.318;25.044;2023-10-31T06:07:57;10;10;
73517;PMS5003;61766;60.318;25.044;2023-10-31T06:10:22;8;6;
73517;PMS5003;61766;60.318;25.044;2023-10-31T06:12:47;10;9;
73517;PMS5003;61766;60.318;25.044;2023-10-31T06:15:13;9;9;
73517;PMS5003;61766;60.318;25.044;2023-10-31T06:17:38;8;8;
73517;PMS5003;61766;60.318;25.044;2023-10-31T06:20:04;9;8;
73517;PMS5003;61766;60.318;25.044;2023-10-31T06:22:29;5;5;
73517;PMS5003;61766;60.318;25.044;2023-10-31T06:24:54;5;5;
73517;PMS5003;61766;60.318;25.044;2023-10-31T06:27:19;4;4;
73517;PMS5003;61766;60.318;25.044;2023-10-31T06:29:44;4;3;
73517;PMS5003;61766;60.318;25.044;2023-10-31T06:32:09;3;3;
73517;PMS5003;61766;60.318;25.044;2023-10-31T06:34:34;5;3;
73517;PMS5003;61766;60.318;25.044;2023-10-31T06:37:00;3;2;
73517;PMS5003;61766;60.318;25.044;2023-10-31T06:39:25;2;2;
73517;PMS5003;61766;60.318;25.044;2023-10-31T06:41:53;2;2;
73517;PMS5003;61766;60.318;25.044;2023-10-31T06:44:15;3;3;
73517;PMS5003;61766;60.318;25.044;2023-10-31T06:46:40;1;1;
73517;PMS5003;61766;60.318;25.044;2023-10-31T06:49:06;2;2;
73517;PMS5003;61766;60.318;25.044;2023-10-31T06:51:31;3;3;
73517;PMS5003;61766;60.318;25.044;2023-10-31T06:53:56;3;2;
73517;PMS5003;61766;60.318;25.044;2023-10-31T06:56:21;1;1;
73517;PMS5003;61766;60.318;25.044;2023-10-31T06:58:46;1;1;
73517;PMS5003;61766;60.318;25.044;2023-10-31T07:01:11;2;2;
73517;PMS5003;61766;60.318;25.044;2023-10-31T07:03:37;2;2;
73517;PMS5003;61766;60.318;25.044;2023-10-31T07:06:02;1;1;
73517;PMS5003;61766;60.318;25.044;2023-10-31T07:08:27;3;2;
73517;PMS5003;61766;60.318;25.044;2023-10-31T07:10:52;1;1;
73517;PMS5003;61766;60.318;25.044;2023-10-31T07:13:17;1;1;
73517;PMS5003;61766;60.318;25.044;2023-10-31T07:15:42;1;1;
73517;PMS5003;61766;60.318;25.044;2023-10-31T07:18:08;2;2;
73517;PMS5003;61766;60.318;25.044;2023-10-31T07:20:33;2;2;
73517;PMS5003;61766;60.318;25.044;2023-10-31T07:22:58;3;3;
73517;PMS5003;61766;60.318;25.044;2023-10-31T07:25:23;2;2;
73517;PMS5003;61766;60.318;25.044;2023-10-31T07:27:48;2;2;
73517;PMS5003;61766;60.318;25.044;2023-10-31T07:30:14;2;2;
73517;PMS5003;61766;60.318;25.044;2023-10-31T07:32:39;4;4;
73517;PMS5003;61766;60.318;25.044;2023-10-31T07:35:04;3;3;
73517;PMS5003;61766;60.318;25.044;2023-10-31T07:37:29;2;2;
73517;PMS5003;61766;60.318;25.044;2023-10-31T07:39:54;4;4;
73517;PMS5003;61766;60.318;25.044;2023-10-31T07:42:19;3;3;
73517;PMS5003;61766;60.318;25.044;2023-10-31T07:44:44;3;3;
73517;PMS5003;61766;60.318;25.044;2023-10-31T07:47:10;3;3;
73517;PMS5003;61766;60.318;25.044;2023-10-31T07:49:35;3;3;
73517;PMS5003;61766;60.318;25.044;2023-10-31T07:52:00;2;2;
73517;PMS5003;61766;60.318;25.044;2023-10-31T07:54:25;7;4;
73517;PMS5003;61766;60.318;25.044;2023-10-31T07:56:50;3;3;
73517;PMS5003;61766;60.318;25.044;2023-10-31T07:59:15;2;2;
73517;PMS5003;61766;60.318;25.044;2023-10-31T08:01:41;4;4;
73517;PMS5003;61766;60.318;25.044;2023-10-31T08:04:06;2;2;
73517;PMS5003;61766;60.318;25.044;2023-10-31T08:06:31;4;3;
73517;PMS5003;61766;60.318;25.044;2023-10-31T08:08:56;3;3;
73517;PMS5003;61766;60.318;25.044;2023-10-31T08:11:21;3;3;
73517;PMS5003;61766;60.318;25.044;2023-10-31T08:13:46;3;3;
73517;PMS5003;61766;60.318;25.044;2023-10-31T08:16:16;3;3;
73517;PMS5003;61766;60.318;25.044;2023-10-31T08:18:37;2;2;
73517;PMS5003;61766;60.318;25.044;2023-10-31T08:21:02;1;1;
73517;PMS5003;61766;60.318;25.044;2023-10-31T08:23:28;2;2;
73517;PMS5003;61766;60.318;25.044;2023-10-31T08:25:52;2;2;
73517;PMS5003;61766;60.318;25.044;2023-10-31T08:28:17;1;1;
73517;PMS5003;61766;60.318;25.044;2023-10-31T08:30:42;2;2;
73517;PMS5003;61766;60.318;25.044;2023-10-31T08:33:08;1;1;
73517;PMS5003;61766;60.318;25.044;2023-10-31T08:35:33;2;2;
73517;PMS5003;61766;60.318;25.044;2023-10-31T08:37:58;1;1;
73517;PMS5003;61766;60.318;25.044;2023-10-31T08:40:23;4;2;
73517;PMS5003;61766;60.318;25.044;2023-10-31T08:42:48;3;2;
73517;PMS5003;61766;60.318;25.044;2023-10-31T08:45:13;1;1;
73517;PMS5003;61766;60.318;25.044;2023-10-31T08:47:38;2;2;
73517;PMS5003;61766;60.318;25.044;2023-10-31T08:50:04;2;2;
73517;PMS5003;61766;60.318;25.044;2023-10-31T08:52:29;2;2;
73517;PMS5003;61766;60.318;25.044;2023-10-31T08:54:54;2;2;
73517;PMS5003;61766;60.318;25.044;2023-10-31T08:57:19;2;2;
73517;PMS5003;61766;60.318;25.044;2023-10-31T08:59:44;3;3;
73517;PMS5003;61766;60.318;25.044;2023-10-31T09:02:09;1;1;
73517;PMS5003;61766;60.318;25.044;2023-10-31T09:04:34;2;2;
73517;PMS5003;61766;60.318;25.044;2023-10-31T09:06:59;1;1;
73517;PMS5003;61766;60.318;25.044;2023-10-31T09:09:25;2;1;
73517;PMS5003;61766;60.318;25.044;2023-10-31T09:11:50;1;1;
73517;PMS5003;61766;60.318;25.044;2023-10-31T09:14:15;1;1;
73517;PMS5003;61766;60.318;25.044;2023-10-31T09:16:40;2;1;
73517;PMS5003;61766;60.318;25.044;2023-10-31T09:19:05;1;1;
73517;PMS5003;61766;60.318;25.044;2023-10-31T09:21:30;0;0;
73517;PMS5003;61766;60.318;25.044;2023-10-31T09:23:55;1;1;
73517;PMS5003;61766;60.318;25.044;2023-10-31T09:26:20;0;0;
73517;PMS5003;61766;60.318;25.044;2023-10-31T09:28:45;0;0;
73517;PMS5003;61766;60.318;25.044;2023-10-31T09:31:11;1;0;
73517;PMS5003;61766;60.318;25.044;2023-10-31T09:33:36;2;2;
73517;PMS5003;61766;60.318;25.044;2023-10-31T09:36:01;1;1;
73517;PMS5003;61766;60.318;25.044;2023-10-31T09:38:26;1;1;
73517;PMS5003;61766;60.318;25.044;2023-10-31T09:40:51;2;2;
73517;PMS5003;61766;60.318;25.044;2023-10-31T09:43:16;0;0;
73517;PMS5003;61766;60.318;25.044;2023-10-31T09:45:41;1;0;
73517;PMS5003;61766;60.318;25.044;2023-10-31T09:48:06;3;2;
73517;PMS5003;61766;60.318;25.044;2023-10-31T09:50:31;2;2;
73517;PMS5003;61766;60.318;25.044;2023-10-31T09:52:57;1;1;
73517;PMS5003;61766;60.318;25.044;2023-10-31T09:55:22;1;1;
73517;PMS5003;61766;60.318;25.044;2023-10-31T09:57:47;1;1;
73517;PMS5003;61766;60.318;25.044;2023-10-31T10:00:12;1;1;
73517;PMS5003;61766;60.318;25.044;2023-10-31T10:02:37;1;0;
73517;PMS5003;61766;60.318;25.044;2023-10-31T10:05:03;1;1;
73517;PMS5003;61766;60.318;25.044;2023-10-31T10:07:27;1;1;
73517;PMS5003;61766;60.318;25.044;2023-10-31T10:09:52;1;1;
73517;PMS5003;61766;60.318;25.044;2023-10-31T10:12:17;1;1;
73517;PMS5003;61766;60.318;25.044;2023-10-31T10:14:44;1;1;
73517;PMS5003;61766;60.318;25.044;2023-10-31T10:19:33;1;1;
73517;PMS5003;61766;60.318;25.044;2023-10-31T10:21:58;2;2;
73517;PMS5003;61766;60.318;25.044;2023-10-31T10:24:23;2;2;
73517;PMS5003;61766;60.318;25.044;2023-10-31T10:26:48;2;2;
73517;PMS5003;61766;60.318;25.044;2023-10-31T10:29:13;2;2;
73517;PMS5003;61766;60.318;25.044;2023-10-31T10:31:38;2;1;
73517;PMS5003;61766;60.318;25.044;2023-10-31T10:34:03;3;3;
73517;PMS5003;61766;60.318;25.044;2023-10-31T10:36:28;5;4;
73517;PMS5003;61766;60.318;25.044;2023-10-31T10:38:54;2;2;
73517;PMS5003;61766;60.318;25.044;2023-10-31T10:41:19;4;3;
73517;PMS5003;61766;60.318;25.044;2023-10-31T10:43:44;3;3;
73517;PMS5003;61766;60.318;25.044;2023-10-31T10:46:09;2;2;
73517;PMS5003;61766;60.318;25.044;2023-10-31T10:48:34;5;3;
73517;PMS5003;61766;60.318;25.044;2023-10-31T10:50:59;3;3;
73517;PMS5003;61766;60.318;25.044;2023-10-31T10:53:25;3;3;
73517;PMS5003;61766;60.318;25.044;2023-10-31T10:55:51;3;3;
73517;PMS5003;61766;60.318;25.044;2023-10-31T10:58:17;3;3;
73517;PMS5003;61766;60.318;25.044;2023-10-31T11:00:39;2;2;
73517;PMS5003;61766;60.318;25.044;2023-10-31T11:03:05;3;3;
73517;PMS5003;61766;60.318;25.044;2023-10-31T11:05:30;3;3;
73517;PMS5003;61766;60.318;25.044;2023-10-31T11:07:55;4;4;
73517;PMS5003;61766;60.318;25.044;2023-10-31T11:10:20;4;3;
73517;PMS5003;61766;60.318;25.044;2023-10-31T11:12:45;6;6;
73517;PMS5003;61766;60.318;25.044;2023-10-31T11:15:11;4;4;
73517;PMS5003;61766;60.318;25.044;2023-10-31T11:17:37;4;4;
73517;PMS5003;61766;60.318;25.044;2023-10-31T11:20:01;6;5;
73517;PMS5003;61766;60.318;25.044;2023-10-31T11:22:28;4;4;
73517;PMS5003;61766;60.318;25.044;2023-10-31T11:24:51;4;4;
73517;PMS5003;61766;60.318;25.044;2023-10-31T11:27:16;8;7;
73517;PMS5003;61766;60.318;25.044;2023-10-31T11:29:41;6;6;
73517;PMS5003;61766;60.318;25.044;2023-10-31T11:32:08;7;6;
73517;PMS5003;61766;60.318;25.044;2023-10-31T11:34:31;4;4;
73517;PMS5003;61766;60.318;25.044;2023-10-31T11:39:22;7;7;
73517;PMS5003;61766;60.318;25.044;2023-10-31T11:41:48;7;6;
73517;PMS5003;61766;60.318;25.044;2023-10-31T11:44:12;5;5;
73517;PMS5003;61766;60.318;25.044;2023-10-31T11:46:37;6;6;
73517;PMS5003;61766;60.318;25.044;2023-10-31T11:49:02;7;7;
73517;PMS5003;61766;60.318;25.044;2023-10-31T11:51:27;5;5;
73517;PMS5003;61766;60.318;25.044;2023-10-31T11:53:52;8;8;
73517;PMS5003;61766;60.318;25.044;2023-10-31T11:56:17;5;5;
73517;PMS5003;61766;60.318;25.044;2023-10-31T11:58:42;8;7;
73517;PMS5003;61766;60.318;25.044;2023-10-31T12:01:08;7;5;
73517;PMS5003;61766;60.318;25.044;2023-10-31T12:03:36;6;6;
73517;PMS5003;61766;60.318;25.044;2023-10-31T12:05:58;10;10;
73517;PMS5003;61766;60.318;25.044;2023-10-31T12:08:24;10;9;
73517;PMS5003;61766;60.318;25.044;2023-10-31T12:10:49;9;8;
73517;PMS5003;61766;60.318;25.044;2023-10-31T12:13:14;7;6;
73517;PMS5003;61766;60.318;25.044;2023-10-31T12:18:05;10;10;
73517;PMS5003;61766;60.318;25.044;2023-10-31T12:20:30;9;9;
73517;PMS5003;61766;60.318;25.044;2023-10-31T12:23:02;7;7;
73517;PMS5003;61766;60.318;25.044;2023-10-31T12:25:21;8;7;
73517;PMS5003;61766;60.318;25.044;2023-10-31T12:27:46;7;6;
73517;PMS5003;61766;60.318;25.044;2023-10-31T12:30:12;7;7;
73517;PMS5003;61766;60.318;25.044;2023-10-31T12:32:36;9;8;
73517;PMS5003;61766;60.318;25.044;2023-10-31T12:35:01;9;9;
73517;PMS5003;61766;60.318;25.044;2023-10-31T12:37:26;8;8;
73517;PMS5003;61766;60.318;25.044;2023-10-31T12:39:51;8;8;
73517;PMS5003;61766;60.318;25.044;2023-10-31T12:42:17;5;5;
73517;PMS5003;61766;60.318;25.044;2023-10-31T12:44:41;6;6;
73517;PMS5003;61766;60.318;25.044;2023-10-31T12:47:07;6;5;
73517;PMS5003;61766;60.318;25.044;2023-10-31T12:49:32;6;6;
73517;PMS5003;61766;60.318;25.044;2023-10-31T12:51:57;6;6;
73517;PMS5003;61766;60.318;25.044;2023-10-31T12:54:27;5;5;
73517;PMS5003;61766;60.318;25.044;2023-10-31T12:56:47;4;4;
73517;PMS5003;61766;60.318;25.044;2023-10-31T12:59:12;6;6;
73517;PMS5003;61766;60.318;25.044;2023-10-31T13:01:42;8;7;
73517;PMS5003;61766;60.318;25.044;2023-10-31T13:04:03;8;6;
73517;PMS5003;61766;60.318;25.044;2023-10-31T13:06:28;8;7;
73517;PMS5003;61766;60.318;25.044;2023-10-31T13:08:54;9;9;
73517;PMS5003;61766;60.318;25.044;2023-10-31T13:11:18;6;6;
73517;PMS5003;61766;60.318;25.044;2023-10-31T13:13:43;4;4;
73517;PMS5003;61766;60.318;25.044;2023-10-31T13:16:09;10;10;
73517;PMS5003;61766;60.318;25.044;2023-10-31T13:18:34;8;8;
73517;PMS5003;61766;60.318;25.044;2023-10-31T13:20:59;8;6;
73517;PMS5003;61766;60.318;25.044;2023-10-31T13:23:24;7;7;
73517;PMS5003;61766;60.318;25.044;2023-10-31T13:25:49;8;8;
73517;PMS5003;61766;60.318;25.044;2023-10-31T13:28:14;8;8;
73517;PMS5003;61766;60.318;25.044;2023-10-31T13:30:39;7;7;
73517;PMS5003;61766;60.318;25.044;2023-10-31T13:33:05;10;10;
73517;PMS5003;61766;60.318;25.044;2023-10-31T13:35:30;8;8;
73517;PMS5003;61766;60.318;25.044;2023-10-31T13:37:55;9;9;
73517;PMS5003;61766;60.318;25.044;2023-10-31T13:40:20;9;9;
73517;PMS5003;61766;60.318;25.044;2023-10-31T13:42:45;11;11;
73517;PMS5003;61766;60.318;25.044;2023-10-31T13:45:10;11;11;
73517;PMS5003;61766;60.318;25.044;2023-10-31T13:47:35;11;11;
73517;PMS5003;61766;60.318;25.044;2023-10-31T13:50:00;13;13;
73517;PMS5003;61766;60.318;25.044;2023-10-31T13:52:26;12;12;
73517;PMS5003;61766;60.318;25.044;2023-10-31T13:54:52;13;13;
73517;PMS5003;61766;60.318;25.044;2023-10-31T13:57:17;16;15;
73517;PMS5003;61766;60.318;25.044;2023-10-31T13:59:42;13;12;
73517;PMS5003;61766;60.318;25.044;2023-10-31T14:02:07;14;14;
73517;PMS5003;61766;60.318;25.044;2023-10-31T14:04:33;14;13;
73517;PMS5003;61766;60.318;25.044;2023-10-31T14:06:58;14;13;
73517;PMS5003;61766;60.318;25.044;2023-10-31T14:09:23;15;15;
73517;PMS5003;61766;60.318;25.044;2023-10-31T14:11:49;12;12;
73517;PMS5003;61766;60.318;25.044;2023-10-31T14:14:14;11;11;
73517;PMS5003;61766;60.318;25.044;2023-10-31T14:16:40;11;11;
73517;PMS5003;61766;60.318;25.044;2023-10-31T14:19:06;11;10;
73517;PMS5003;61766;60.318;25.044;2023-10-31T14:21:31;9;9;
73517;PMS5003;61766;60.318;25.044;2023-10-31T14:23:57;11;11;
73517;PMS5003;61766;60.318;25.044;2023-10-31T14:26:22;11;10;
73517;PMS5003;61766;60.318;25.044;2023-10-31T14:28:47;9;9;
73517;PMS5003;61766;60.318;25.044;2023-10-31T14:31:12;9;9;
73517;PMS5003;61766;60.318;25.044;2023-10-31T14:33:37;9;9;
73517;PMS5003;61766;60.318;25.044;2023-10-31T14:36:03;7;7;
73517;PMS5003;61766;60.318;25.044;2023-10-31T14:38:27;7;7;
73517;PMS5003;61766;60.318;25.044;2023-10-31T14:40:53;7;6;
73517;PMS5003;61766;60.318;25.044;2023-10-31T14:43:18;6;6;
73517;PMS5003;61766;60.318;25.044;2023-10-31T14:45:43;7;6;
73517;PMS5003;61766;60.318;25.044;2023-10-31T14:48:08;4;4;
73517;PMS5003;61766;60.318;25.044;2023-10-31T14:50:33;5;5;
73517;PMS5003;61766;60.318;25.044;2023-10-31T14:52:58;6;4;
73517;PMS5003;61766;60.318;25.044;2023-10-31T14:55:23;4;4;
73517;PMS5003;61766;60.318;25.044;2023-10-31T14:57:48;3;3;
73517;PMS5003;61766;60.318;25.044;2023-10-31T15:00:13;7;6;
73517;PMS5003;61766;60.318;25.044;2023-10-31T15:02:38;5;4;
73517;PMS5003;61766;60.318;25.044;2023-10-31T15:05:04;5;4;
73517;PMS5003;61766;60.318;25.044;2023-10-31T15:07:29;4;4;
73517;PMS5003;61766;60.318;25.044;2023-10-31T15:09:54;4;4;
73517;PMS5003;61766;60.318;25.044;2023-10-31T15:12:19;3;3;
73517;PMS5003;61766;60.318;25.044;2023-10-31T15:14:44;3;3;
73517;PMS5003;61766;60.318;25.044;2023-10-31T15:17:09;4;4;
73517;PMS5003;61766;60.318;25.044;2023-10-31T15:19:34;5;4;
73517;PMS5003;61766;60.318;25.044;2023-10-31T15:21:59;6;5;
73517;PMS5003;61766;60.318;25.044;2023-10-31T15:24:24;4;4;
73517;PMS5003;61766;60.318;25.044;2023-10-31T15:26:49;3;3;
73517;PMS5003;61766;60.318;25.044;2023-10-31T15:29:14;2;2;
73517;PMS5003;61766;60.318;25.044;2023-10-31T15:31:42;10;10;
73517;PMS5003;61766;60.318;25.044;2023-10-31T15:34:04;4;4;
73517;PMS5003;61766;60.318;25.044;2023-10-31T15:36:29;2;2;
73517;PMS5003;61766;60.318;25.044;2023-10-31T15:38:55;2;2;
73517;PMS5003;61766;60.318;25.044;2023-10-31T15:41:20;0;0;
73517;PMS5003;61766;60.318;25.044;2023-10-31T15:43:45;3;2;
73517;PMS5003;61766;60.318;25.044;2023-10-31T15:46:10;3;3;
73517;PMS5003;61766;60.318;25.044;2023-10-31T15:48:35;3;2;
73517;PMS5003;61766;60.318;25.044;2023-10-31T15:51:00;2;2;
73517;PMS5003;61766;60.318;25.044;2023-10-31T15:53:25;3;2;
73517;PMS5003;61766;60.318;25.044;2023-10-31T15:55:50;2;1;
73517;PMS5003;61766;60.318;25.044;2023-10-31T15:58:15;4;4;
73517;PMS5003;61766;60.318;25.044;2023-10-31T16:00:40;4;3;
73517;PMS5003;61766;60.318;25.044;2023-10-31T16:03:05;3;3;
73517;PMS5003;61766;60.318;25.044;2023-10-31T16:05:30;0;0;
73517;PMS5003;61766;60.318;25.044;2023-10-31T16:07:56;1;1;
73517;PMS5003;61766;60.318;25.044;2023-10-31T16:10:21;1;1;
73517;PMS5003;61766;60.318;25.044;2023-10-31T16:12:46;1;0;
73517;PMS5003;61766;60.318;25.044;2023-10-31T16:15:11;1;1;